Wetterdaten: Freitag, 11.02.2011
Datum Zeit Temp. Auen Feucht Auen Luftdruck Regen Richtung Richtung Windben
11.02.2011 00:00 -1,1 C 73 % 1091,3 hPa 0,0 mm N 0 0,0 km/h (0 Bft)
11.02.2011 00:15 -1,0 C 73 % 1091,3 hPa 0,0 mm N 0 0,0 km/h (0 Bft)
11.02.2011 00:30 -1,2 C 73 % 1091,3 hPa 0,0 mm N 0 0,0 km/h (0 Bft)
11.02.2011 00:45 -0,9 C 74 % 1091,2 hPa 0,0 mm N 0 0,0 km/h (0 Bft)
11.02.2011 01:00 -0,4 C 75 % 1090,9 hPa 0,0 mm SW 225 3,6 km/h (1 Bft)
11.02.2011 01:15 0,1 C 74 % 1090,4 hPa 0,0 mm SW 225 2,5 km/h (1 Bft)
11.02.2011 01:30 0,4 C 74 % 1090,5 hPa 0,0 mm W 270 5,0 km/h (1 Bft)
11.02.2011 01:45 0,8 C 74 % 1090,2 hPa 0,0 mm W 263 7,2 km/h (2 Bft)
11.02.2011 02:00 1,1 C 73 % 1090,1 hPa 0,0 mm W 270 5,0 km/h (1 Bft)
11.02.2011 02:15 1,2 C 73 % 1090,0 hPa 0,0 mm N 0 0,0 km/h (0 Bft)
11.02.2011 02:30 0,9 C 74 % 1090,0 hPa 0,0 mm N 0 0,0 km/h (0 Bft)
11.02.2011 02:45 0,6 C 75 % 1090,3 hPa 0,0 mm N 0 0,0 km/h (0 Bft)
11.02.2011 03:00 0,8 C 75 % 1089,8 hPa 0,0 mm N 0 0,0 km/h (0 Bft)
11.02.2011 03:15 1,0 C 75 % 1089,7 hPa 0,0 mm W 270 5,0 km/h (1 Bft)
11.02.2011 03:30 1,2 C 75 % 1089,6 hPa 0,0 mm W-SW 255 5,0 km/h (1 Bft)
11.02.2011 03:45 1,7 C 74 % 1088,8 hPa 0,0 mm NW 324 9,7 km/h (2 Bft)
11.02.2011 04:00 2,3 C 73 % 1088,6 hPa 0,0 mm W-SW 252 8,6 km/h (2 Bft)
11.02.2011 04:15 2,3 C 73 % 1088,4 hPa 0,0 mm W 269 8,6 km/h (2 Bft)
11.02.2011 04:30 1,9 C 74 % 1088,5 hPa 0,0 mm O 90 7,2 km/h (2 Bft)
11.02.2011 04:45 2,1 C 72 % 1088,5 hPa 0,0 mm N 0 0,0 km/h (0 Bft)
11.02.2011 05:00 2,1 C 72 % 1088,7 hPa 0,0 mm N 0 0,0 km/h (0 Bft)
11.02.2011 05:15 2,2 C 71 % 1088,7 hPa 0,0 mm W 270 1,1 km/h (1 Bft)
11.02.2011 05:30 2,1 C 72 % 1088,6 hPa 0,0 mm W-SW 245 3,6 km/h (1 Bft)
11.02.2011 05:45 2,2 C 73 % 1088,4 hPa 0,0 mm W 270 3,6 km/h (1 Bft)
11.02.2011 06:00 2,8 C 72 % 1088,3 hPa 0,0 mm W-SW 246 6,1 km/h (2 Bft)
11.02.2011 06:15 2,8 C 71 % 1088,2 hPa 0,0 mm N 0 0,0 km/h (0 Bft)
11.02.2011 06:30 2,2 C 73 % 1088,5 hPa 0,0 mm SO 135 2,5 km/h (1 Bft)
11.02.2011 06:45 2,5 C 73 % 1088,4 hPa 0,0 mm N 0 0,0 km/h (0 Bft)
11.02.2011 07:00 4,0 C 70 % 1088,0 hPa 0,0 mm W 270 3,6 km/h (1 Bft)
11.02.2011 07:15 4,2 C 68 % 1087,9 hPa 0,0 mm SW 225 5,0 km/h (1 Bft)
11.02.2011 07:30 4,2 C 68 % 1088,0 hPa 0,0 mm W 259 6,1 km/h (2 Bft)
11.02.2011 07:45 3,9 C 70 % 1088,2 hPa 0,0 mm SW 225 3,6 km/h (1 Bft)
11.02.2011 08:00 3,8 C 73 % 1088,4 hPa 0,0 mm W 270 5,0 km/h (1 Bft)
11.02.2011 08:15 3,9 C 75 % 1088,3 hPa 0,0 mm W 260 7,2 km/h (2 Bft)
11.02.2011 08:30 4,7 C 73 % 1088,1 hPa 0,0 mm W 260 8,6 km/h (2 Bft)
11.02.2011 08:45 2,8 C 73 % 1088,6 hPa 0,0 mm S 181 2,5 km/h (1 Bft)
11.02.2011 09:00 2,3 C 76 % 1088,6 hPa 0,0 mm NO 45 3,6 km/h (1 Bft)
11.02.2011 09:15 3,0 C 77 % 1088,6 hPa 0,0 mm S-SO 166 5,0 km/h (1 Bft)
11.02.2011 09:30 3,4 C 76 % 1088,7 hPa 0,0 mm N 7 7,2 km/h (2 Bft)
11.02.2011 09:45 3,7 C 76 % 1088,2 hPa 0,0 mm N-NW 334 9,7 km/h (2 Bft)
11.02.2011 10:00 3,8 C 76 % 1088,0 hPa 0,3 mm W-SW 251 3,6 km/h (1 Bft)
11.02.2011 10:15 3,6 C 76 % 1088,1 hPa 0,0 mm N 1 5,0 km/h (1 Bft)
11.02.2011 10:30 4,8 C 75 % 1087,8 hPa 0,0 mm S 181 2,5 km/h (1 Bft)
11.02.2011 10:45 5,5 C 73 % 1087,7 hPa 0,0 mm N 0 0,0 km/h (0 Bft)
11.02.2011 11:00 6,0 C 71 % 1087,6 hPa 0,0 mm N 0 0,0 km/h (0 Bft)
11.02.2011 11:15 5,5 C 70 % 1087,6 hPa 0,0 mm SO 135 5,0 km/h (1 Bft)
11.02.2011 11:30 5,7 C 70 % 1087,4 hPa 0,0 mm N 0 0,0 km/h (0 Bft)
11.02.2011 11:45 5,7 C 70 % 1087,2 hPa 0,0 mm S-SO 163 5,0 km/h (1 Bft)
11.02.2011 12:00 7,6 C 65 % 1086,7 hPa 0,0 mm W 270 6,1 km/h (2 Bft)
11.02.2011 12:15 9,4 C 56 % 1086,0 hPa 0,0 mm W 270 11,2 km/h (2 Bft)
11.02.2011 12:30 9,7 C 55 % 1085,9 hPa 0,0 mm W 259 8,6 km/h (2 Bft)
11.02.2011 12:45 9,7 C 53 % 1085,7 hPa 0,0 mm W 278 11,2 km/h (2 Bft)
11.02.2011 13:00 9,8 C 53 % 1085,4 hPa 0,0 mm W-SW 255 9,7 km/h (2 Bft)
11.02.2011 13:15 9,6 C 52 % 1085,5 hPa 0,0 mm W 265 11,2 km/h (2 Bft)
11.02.2011 13:30 9,6 C 52 % 1085,3 hPa 0,0 mm W 267 9,7 km/h (2 Bft)
11.02.2011 13:45 9,5 C 52 % 1085,3 hPa 0,0 mm W-NW 292 6,1 km/h (2 Bft)
11.02.2011 14:00 9,1 C 52 % 1085,4 hPa 0,0 mm N 0 0,0 km/h (0 Bft)
11.02.2011 14:15 8,4 C 53 % 1085,5 hPa 0,0 mm N 0 0,0 km/h (0 Bft)
11.02.2011 14:30 8,1 C 53 % 1085,4 hPa 0,0 mm N 0 0,0 km/h (0 Bft)
11.02.2011 14:45 8,1 C 54 % 1085,3 hPa 0,0 mm N 0 0,0 km/h (0 Bft)
11.02.2011 15:00 7,2 C 54 % 1085,7 hPa 0,0 mm N 0 0,0 km/h (0 Bft)
11.02.2011 15:15 6,9 C 56 % 1085,4 hPa 0,0 mm N 0 0,0 km/h (0 Bft)
11.02.2011 15:30 6,4 C 58 % 1085,4 hPa 0,0 mm N 0 0,0 km/h (0 Bft)
11.02.2011 15:45 6,2 C 60 % 1085,6 hPa 0,0 mm N 0 0,0 km/h (0 Bft)
11.02.2011 16:00 6,1 C 60 % 1085,8 hPa 0,0 mm N 0 0,0 km/h (0 Bft)
11.02.2011 16:15 6,0 C 61 % 1085,8 hPa 0,0 mm N 0 0,0 km/h (0 Bft)
11.02.2011 16:30 5,7 C 60 % 1085,6 hPa 0,0 mm W-NW 289 3,6 km/h (1 Bft)
11.02.2011 16:45 6,9 C 56 % 1085,1 hPa 0,0 mm W 270 7,2 km/h (2 Bft)
11.02.2011 17:00 8,4 C 51 % 1084,8 hPa 0,0 mm W 264 11,2 km/h (2 Bft)
11.02.2011 17:15 8,2 C 51 % 1084,8 hPa 0,0 mm W 270 7,2 km/h (2 Bft)
11.02.2011 17:30 7,5 C 53 % 1085,2 hPa 0,0 mm W 260 8,6 km/h (2 Bft)
11.02.2011 17:45 8,6 C 52 % 1084,8 hPa 0,0 mm W-SW 258 12,2 km/h (2 Bft)
11.02.2011 18:00 9,0 C 51 % 1084,6 hPa 0,0 mm W-SW 242 12,2 km/h (2 Bft)
11.02.2011 18:15 9,3 C 49 % 1084,4 hPa 0,0 mm W-NW 288 25,6 km/h (4 Bft)
11.02.2011 18:30 9,1 C 51 % 1084,2 hPa 0,0 mm W 261 15,8 km/h (3 Bft)
11.02.2011 18:45 8,9 C 51 % 1084,1 hPa 0,0 mm W 264 9,7 km/h (2 Bft)
11.02.2011 19:00 8,6 C 53 % 1084,1 hPa 0,0 mm W-SW 247 9,7 km/h (2 Bft)
11.02.2011 19:15 8,2 C 54 % 1084,1 hPa 0,0 mm W 270 6,1 km/h (2 Bft)
11.02.2011 19:30 8,0 C 55 % 1084,2 hPa 0,0 mm N 0 0,0 km/h (0 Bft)
11.02.2011 19:45 9,4 C 50 % 1083,8 hPa 0,0 mm W 273 29,5 km/h (5 Bft)
11.02.2011 20:00 10,0 C 49 % 1083,5 hPa 0,0 mm W 264 28,1 km/h (4 Bft)
11.02.2011 20:15 10,1 C 50 % 1083,8 hPa 0,0 mm W 259 36,7 km/h (5 Bft)
11.02.2011 20:30 9,7 C 52 % 1083,8 hPa 0,0 mm W-SW 256 28,1 km/h (4 Bft)
11.02.2011 20:45 9,3 C 55 % 1084,2 hPa 0,3 mm W 279 37,8 km/h (5 Bft)
11.02.2011 21:00 8,7 C 59 % 1084,3 hPa 0,3 mm W 276 22,0 km/h (4 Bft)
11.02.2011 21:15 8,4 C 62 % 1084,4 hPa 0,0 mm W 268 24,5 km/h (4 Bft)
11.02.2011 21:30 7,8 C 66 % 1084,7 hPa 0,9 mm W 267 19,4 km/h (3 Bft)
11.02.2011 21:45 8,0 C 66 % 1084,5 hPa 0,0 mm W 268 24,5 km/h (4 Bft)
11.02.2011 22:00 8,3 C 65 % 1084,2 hPa 0,0 mm W 275 24,5 km/h (4 Bft)
11.02.2011 22:15 8,5 C 62 % 1083,8 hPa 0,0 mm W 261 25,6 km/h (4 Bft)
11.02.2011 22:30 8,9 C 59 % 1083,6 hPa 0,0 mm W-NW 283 28,1 km/h (4 Bft)
11.02.2011 22:45 9,0 C 58 % 1083,8 hPa 0,3 mm W 270 31,7 km/h (5 Bft)
11.02.2011 23:00 8,8 C 58 % 1083,8 hPa 0,0 mm W 271 25,6 km/h (4 Bft)
11.02.2011 23:15 8,8 C 58 % 1083,8 hPa 0,0 mm W 271 18,4 km/h (3 Bft)
11.02.2011 23:30 8,0 C 62 % 1084,1 hPa 0,0 mm W-SW 257 11,2 km/h (2 Bft)
11.02.2011 23:45 7,5 C 65 % 1084,3 hPa 0,3 mm W 266 14,8 km/h (3 Bft)
_ Min-Zeit 00:30 18:15 20:00 - - - 00:00
Minimum _ -1,2 C 49 % 1083,5 hPa - - - 0,0 km/h (0 Bft)
_ Max-Zeit 20:15 09:15 00:00 21:30 - - 20:45
Maximum _ 10,1 C 77 % 1091,3 hPa 0,9 mm - - 37,8 km/h
W (5 Bft)
Durchschnitt _ 5,5 C 64 % 1086,8 hPa #2,4 mm W - 8,5 km/h (2 Bft)